sensor_id;sensor_type;location;lat;lon;timestamp;P1;durP1;ratioP1;P2;durP2;ratioP2
30287;SDS011;17103;48.316;11.558;2023-07-02T00:01:24;2.67;;;1.65;;
30287;SDS011;17103;48.316;11.558;2023-07-02T00:03:49;3.53;;;1.60;;
30287;SDS011;17103;48.316;11.558;2023-07-02T00:06:15;2.72;;;2.10;;
30287;SDS011;17103;48.316;11.558;2023-07-02T00:08:42;2.38;;;1.50;;
30287;SDS011;17103;48.316;11.558;2023-07-02T00:11:08;3.08;;;1.90;;
30287;SDS011;17103;48.316;11.558;2023-07-02T00:13:37;2.88;;;1.98;;
30287;SDS011;17103;48.316;11.558;2023-07-02T00:16:03;2.85;;;1.60;;
30287;SDS011;17103;48.316;11.558;2023-07-02T00:18:29;2.90;;;1.90;;
30287;SDS011;17103;48.316;11.558;2023-07-02T00:20:59;1.75;;;1.50;;
30287;SDS011;17103;48.316;11.558;2023-07-02T00:23:26;2.88;;;1.60;;
30287;SDS011;17103;48.316;11.558;2023-07-02T00:25:51;3.40;;;1.83;;
30287;SDS011;17103;48.316;11.558;2023-07-02T00:28:17;2.65;;;1.75;;
30287;SDS011;17103;48.316;11.558;2023-07-02T00:30:43;2.25;;;1.63;;
30287;SDS011;17103;48.316;11.558;2023-07-02T00:33:08;4.20;;;1.75;;
30287;SDS011;17103;48.316;11.558;2023-07-02T00:35:34;2.13;;;1.50;;
30287;SDS011;17103;48.316;11.558;2023-07-02T00:37:59;2.53;;;1.60;;
30287;SDS011;17103;48.316;11.558;2023-07-02T00:40:26;3.85;;;2.00;;
30287;SDS011;17103;48.316;11.558;2023-07-02T00:42:52;2.92;;;1.50;;
30287;SDS011;17103;48.316;11.558;2023-07-02T00:45:18;3.45;;;1.60;;
30287;SDS011;17103;48.316;11.558;2023-07-02T00:47:43;2.28;;;1.80;;
30287;SDS011;17103;48.316;11.558;2023-07-02T00:50:10;2.05;;;1.33;;
30287;SDS011;17103;48.316;11.558;2023-07-02T00:52:36;3.63;;;1.05;;
30287;SDS011;17103;48.316;11.558;2023-07-02T00:55:02;1.70;;;1.50;;
30287;SDS011;17103;48.316;11.558;2023-07-02T00:57:28;3.15;;;1.35;;
30287;SDS011;17103;48.316;11.558;2023-07-02T00:59:55;3.35;;;1.60;;
30287;SDS011;17103;48.316;11.558;2023-07-02T01:02:22;2.83;;;2.53;;
30287;SDS011;17103;48.316;11.558;2023-07-02T01:04:50;4.60;;;1.48;;
30287;SDS011;17103;48.316;11.558;2023-07-02T01:07:17;2.28;;;1.33;;
30287;SDS011;17103;48.316;11.558;2023-07-02T01:09:42;2.50;;;1.58;;
30287;SDS011;17103;48.316;11.558;2023-07-02T01:12:08;4.40;;;1.83;;
30287;SDS011;17103;48.316;11.558;2023-07-02T01:14:40;2.55;;;1.55;;
30287;SDS011;17103;48.316;11.558;2023-07-02T01:17:09;2.05;;;1.20;;
30287;SDS011;17103;48.316;11.558;2023-07-02T01:22:10;4.85;;;1.30;;
30287;SDS011;17103;48.316;11.558;2023-07-02T01:24:38;2.10;;;0.93;;
30287;SDS011;17103;48.316;11.558;2023-07-02T01:27:04;1.65;;;1.13;;
30287;SDS011;17103;48.316;11.558;2023-07-02T01:29:30;2.92;;;1.42;;
30287;SDS011;17103;48.316;11.558;2023-07-02T01:31:56;4.00;;;1.92;;
30287;SDS011;17103;48.316;11.558;2023-07-02T01:34:22;2.50;;;1.25;;
30287;SDS011;17103;48.316;11.558;2023-07-02T01:36:48;4.72;;;1.42;;
30287;SDS011;17103;48.316;11.558;2023-07-02T01:39:14;2.40;;;1.33;;
30287;SDS011;17103;48.316;11.558;2023-07-02T01:41:45;2.38;;;1.20;;
30287;SDS011;17103;48.316;11.558;2023-07-02T01:44:14;3.33;;;1.10;;
30287;SDS011;17103;48.316;11.558;2023-07-02T02:16:07;1.00;;;0.80;;
30287;SDS011;17103;48.316;11.558;2023-07-02T02:18:32;3.67;;;0.93;;
30287;SDS011;17103;48.316;11.558;2023-07-02T02:20:58;0.90;;;0.80;;
30287;SDS011;17103;48.316;11.558;2023-07-02T02:23:23;2.00;;;1.00;;
30287;SDS011;17103;48.316;11.558;2023-07-02T02:25:49;2.40;;;0.90;;
30287;SDS011;17103;48.316;11.558;2023-07-02T02:28:15;1.65;;;1.08;;
30287;SDS011;17103;48.316;11.558;2023-07-02T02:30:40;4.18;;;1.50;;
30287;SDS011;17103;48.316;11.558;2023-07-02T02:33:06;1.40;;;0.85;;
30287;SDS011;17103;48.316;11.558;2023-07-02T02:35:31;1.83;;;1.05;;
30287;SDS011;17103;48.316;11.558;2023-07-02T02:37:57;1.23;;;1.05;;
30287;SDS011;17103;48.316;11.558;2023-07-02T02:40:23;1.98;;;1.08;;
30287;SDS011;17103;48.316;11.558;2023-07-02T02:42:48;1.35;;;0.98;;
30287;SDS011;17103;48.316;11.558;2023-07-02T02:45:14;2.72;;;0.90;;
30287;SDS011;17103;48.316;11.558;2023-07-02T02:47:39;2.22;;;0.95;;
30287;SDS011;17103;48.316;11.558;2023-07-02T02:50:05;2.65;;;0.93;;
30287;SDS011;17103;48.316;11.558;2023-07-02T02:52:31;4.35;;;1.20;;
30287;SDS011;17103;48.316;11.558;2023-07-02T02:54:57;3.53;;;0.80;;
30287;SDS011;17103;48.316;11.558;2023-07-02T02:57:23;1.55;;;1.20;;
30287;SDS011;17103;48.316;11.558;2023-07-02T02:59:48;1.92;;;1.00;;
30287;SDS011;17103;48.316;11.558;2023-07-02T03:02:14;2.85;;;1.05;;
30287;SDS011;17103;48.316;11.558;2023-07-02T03:04:39;2.03;;;1.13;;
30287;SDS011;17103;48.316;11.558;2023-07-02T03:07:06;2.45;;;1.52;;
30287;SDS011;17103;48.316;11.558;2023-07-02T03:09:32;3.22;;;1.00;;
30287;SDS011;17103;48.316;11.558;2023-07-02T03:11:58;1.33;;;1.02;;
30287;SDS011;17103;48.316;11.558;2023-07-02T03:14:24;2.97;;;0.73;;
30287;SDS011;17103;48.316;11.558;2023-07-02T03:16:50;2.42;;;1.27;;
30287;SDS011;17103;48.316;11.558;2023-07-02T03:19:15;2.88;;;1.00;;
30287;SDS011;17103;48.316;11.558;2023-07-02T03:21:44;3.25;;;1.20;;
30287;SDS011;17103;48.316;11.558;2023-07-02T03:24:10;2.03;;;0.90;;
30287;SDS011;17103;48.316;11.558;2023-07-02T03:26:42;2.63;;;0.95;;
30287;SDS011;17103;48.316;11.558;2023-07-02T03:29:08;2.55;;;0.90;;
30287;SDS011;17103;48.316;11.558;2023-07-02T03:31:34;2.75;;;1.13;;
30287;SDS011;17103;48.316;11.558;2023-07-02T03:34:03;3.60;;;1.05;;
30287;SDS011;17103;48.316;11.558;2023-07-02T03:36:31;1.83;;;1.25;;
30287;SDS011;17103;48.316;11.558;2023-07-02T03:38:56;2.67;;;1.27;;
30287;SDS011;17103;48.316;11.558;2023-07-02T03:41:22;2.50;;;1.15;;
30287;SDS011;17103;48.316;11.558;2023-07-02T03:43:49;4.72;;;1.25;;
30287;SDS011;17103;48.316;11.558;2023-07-02T03:46:14;2.15;;;1.30;;
30287;SDS011;17103;48.316;11.558;2023-07-02T03:48:40;3.80;;;1.13;;
30287;SDS011;17103;48.316;11.558;2023-07-02T03:51:06;1.63;;;0.90;;
30287;SDS011;17103;48.316;11.558;2023-07-02T03:53:32;1.75;;;1.30;;
30287;SDS011;17103;48.316;11.558;2023-07-02T03:55:58;1.90;;;1.00;;
30287;SDS011;17103;48.316;11.558;2023-07-02T03:58:23;2.70;;;0.93;;
30287;SDS011;17103;48.316;11.558;2023-07-02T04:00:49;1.60;;;1.02;;
30287;SDS011;17103;48.316;11.558;2023-07-02T04:03:15;2.30;;;1.20;;
30287;SDS011;17103;48.316;11.558;2023-07-02T04:05:42;2.63;;;1.13;;
30287;SDS011;17103;48.316;11.558;2023-07-02T04:08:07;5.15;;;1.30;;
30287;SDS011;17103;48.316;11.558;2023-07-02T04:10:33;2.00;;;1.02;;
30287;SDS011;17103;48.316;11.558;2023-07-02T04:12:59;3.55;;;1.48;;
30287;SDS011;17103;48.316;11.558;2023-07-02T04:15:24;2.22;;;1.30;;
30287;SDS011;17103;48.316;11.558;2023-07-02T04:17:51;1.98;;;1.20;;
30287;SDS011;17103;48.316;11.558;2023-07-02T04:20:17;2.35;;;1.42;;
30287;SDS011;17103;48.316;11.558;2023-07-02T04:22:44;4.43;;;1.40;;
30287;SDS011;17103;48.316;11.558;2023-07-02T04:25:11;2.80;;;0.90;;
30287;SDS011;17103;48.316;11.558;2023-07-02T04:27:40;1.80;;;1.00;;
30287;SDS011;17103;48.316;11.558;2023-07-02T04:30:06;2.65;;;1.60;;
30287;SDS011;17103;48.316;11.558;2023-07-02T04:32:33;4.18;;;1.30;;
30287;SDS011;17103;48.316;11.558;2023-07-02T04:34:59;1.85;;;1.20;;
30287;SDS011;17103;48.316;11.558;2023-07-02T04:37:24;2.22;;;1.58;;
30287;SDS011;17103;48.316;11.558;2023-07-02T04:39:50;2.92;;;1.23;;
30287;SDS011;17103;48.316;11.558;2023-07-02T04:42:15;2.28;;;1.15;;
30287;SDS011;17103;48.316;11.558;2023-07-02T04:44:41;2.55;;;0.90;;
30287;SDS011;17103;48.316;11.558;2023-07-02T04:47:08;2.05;;;1.05;;
30287;SDS011;17103;48.316;11.558;2023-07-02T04:49:34;3.63;;;1.30;;
30287;SDS011;17103;48.316;11.558;2023-07-02T04:52:00;2.22;;;0.98;;
30287;SDS011;17103;48.316;11.558;2023-07-02T04:54:25;2.13;;;1.30;;
30287;SDS011;17103;48.316;11.558;2023-07-02T04:56:51;3.10;;;1.30;;
30287;SDS011;17103;48.316;11.558;2023-07-02T04:59:16;3.63;;;1.50;;
30287;SDS011;17103;48.316;11.558;2023-07-02T05:01:44;4.63;;;1.40;;
30287;SDS011;17103;48.316;11.558;2023-07-02T05:04:10;3.92;;;1.70;;
30287;SDS011;17103;48.316;11.558;2023-07-02T05:06:38;2.50;;;1.30;;
30287;SDS011;17103;48.316;11.558;2023-07-02T05:09:04;2.15;;;1.35;;
30287;SDS011;17103;48.316;11.558;2023-07-02T05:11:30;3.25;;;1.48;;
30287;SDS011;17103;48.316;11.558;2023-07-02T05:13:56;3.20;;;1.40;;
30287;SDS011;17103;48.316;11.558;2023-07-02T05:16:21;2.30;;;1.20;;
30287;SDS011;17103;48.316;11.558;2023-07-02T05:18:47;3.17;;;1.70;;
30287;SDS011;17103;48.316;11.558;2023-07-02T05:21:13;2.53;;;1.27;;
30287;SDS011;17103;48.316;11.558;2023-07-02T05:23:42;1.58;;;1.35;;
30287;SDS011;17103;48.316;11.558;2023-07-02T05:26:08;2.20;;;1.58;;
30287;SDS011;17103;48.316;11.558;2023-07-02T05:28:34;4.80;;;1.50;;
30287;SDS011;17103;48.316;11.558;2023-07-02T05:30:59;1.60;;;1.25;;
30287;SDS011;17103;48.316;11.558;2023-07-02T05:33:25;3.25;;;1.60;;
30287;SDS011;17103;48.316;11.558;2023-07-02T05:35:50;1.95;;;1.58;;
30287;SDS011;17103;48.316;11.558;2023-07-02T05:38:17;1.92;;;1.38;;
30287;SDS011;17103;48.316;11.558;2023-07-02T05:40:44;2.60;;;1.40;;
30287;SDS011;17103;48.316;11.558;2023-07-02T05:43:10;1.48;;;1.10;;
30287;SDS011;17103;48.316;11.558;2023-07-02T05:45:36;2.53;;;1.15;;
30287;SDS011;17103;48.316;11.558;2023-07-02T05:48:01;2.90;;;1.25;;
30287;SDS011;17103;48.316;11.558;2023-07-02T05:50:27;1.30;;;0.90;;
30287;SDS011;17103;48.316;11.558;2023-07-02T05:52:53;2.17;;;1.45;;
30287;SDS011;17103;48.316;11.558;2023-07-02T05:55:18;2.50;;;1.25;;
30287;SDS011;17103;48.316;11.558;2023-07-02T05:57:44;1.27;;;0.98;;
30287;SDS011;17103;48.316;11.558;2023-07-02T06:00:10;4.75;;;1.60;;
30287;SDS011;17103;48.316;11.558;2023-07-02T06:02:36;3.83;;;1.35;;
30287;SDS011;17103;48.316;11.558;2023-07-02T06:05:02;3.47;;;1.30;;
30287;SDS011;17103;48.316;11.558;2023-07-02T06:07:28;2.83;;;2.05;;
30287;SDS011;17103;48.316;11.558;2023-07-02T06:09:54;3.95;;;1.60;;
30287;SDS011;17103;48.316;11.558;2023-07-02T06:12:20;2.00;;;1.40;;
30287;SDS011;17103;48.316;11.558;2023-07-02T06:14:46;1.92;;;1.73;;
30287;SDS011;17103;48.316;11.558;2023-07-02T06:17:12;3.95;;;1.17;;
30287;SDS011;17103;48.316;11.558;2023-07-02T06:19:38;1.75;;;1.40;;
30287;SDS011;17103;48.316;11.558;2023-07-02T06:22:04;3.08;;;1.70;;
30287;SDS011;17103;48.316;11.558;2023-07-02T06:24:30;3.33;;;1.35;;
30287;SDS011;17103;48.316;11.558;2023-07-02T06:26:56;3.08;;;1.42;;
30287;SDS011;17103;48.316;11.558;2023-07-02T06:29:25;3.35;;;1.50;;
30287;SDS011;17103;48.316;11.558;2023-07-02T06:31:50;3.33;;;1.70;;
30287;SDS011;17103;48.316;11.558;2023-07-02T06:34:16;3.83;;;1.85;;
30287;SDS011;17103;48.316;11.558;2023-07-02T06:36:42;4.05;;;2.20;;
30287;SDS011;17103;48.316;11.558;2023-07-02T06:39:08;3.92;;;1.70;;
30287;SDS011;17103;48.316;11.558;2023-07-02T06:41:34;2.72;;;1.58;;
30287;SDS011;17103;48.316;11.558;2023-07-02T06:44:00;4.30;;;1.95;;
30287;SDS011;17103;48.316;11.558;2023-07-02T06:46:26;2.92;;;1.90;;
30287;SDS011;17103;48.316;11.558;2023-07-02T06:48:52;2.53;;;2.03;;
30287;SDS011;17103;48.316;11.558;2023-07-02T06:51:18;2.72;;;1.92;;
30287;SDS011;17103;48.316;11.558;2023-07-02T06:53:45;3.17;;;1.70;;
30287;SDS011;17103;48.316;11.558;2023-07-02T06:56:10;2.50;;;1.70;;
30287;SDS011;17103;48.316;11.558;2023-07-02T06:58:36;2.40;;;1.45;;
30287;SDS011;17103;48.316;11.558;2023-07-02T07:01:02;4.30;;;1.63;;
30287;SDS011;17103;48.316;11.558;2023-07-02T07:03:28;4.90;;;2.15;;
30287;SDS011;17103;48.316;11.558;2023-07-02T07:05:54;4.03;;;1.88;;
30287;SDS011;17103;48.316;11.558;2023-07-02T07:08:20;4.15;;;2.22;;
30287;SDS011;17103;48.316;11.558;2023-07-02T07:10:46;3.72;;;1.40;;
30287;SDS011;17103;48.316;11.558;2023-07-02T07:13:12;2.50;;;1.77;;
30287;SDS011;17103;48.316;11.558;2023-07-02T07:15:38;2.47;;;1.35;;
30287;SDS011;17103;48.316;11.558;2023-07-02T07:18:04;3.70;;;1.90;;
30287;SDS011;17103;48.316;11.558;2023-07-02T07:20:30;2.30;;;1.38;;
30287;SDS011;17103;48.316;11.558;2023-07-02T07:22:58;3.17;;;1.80;;
30287;SDS011;17103;48.316;11.558;2023-07-02T07:25:24;2.75;;;1.60;;
30287;SDS011;17103;48.316;11.558;2023-07-02T07:27:49;2.38;;;1.50;;
30287;SDS011;17103;48.316;11.558;2023-07-02T07:30:15;3.10;;;1.50;;
30287;SDS011;17103;48.316;11.558;2023-07-02T07:32:47;3.80;;;1.90;;
30287;SDS011;17103;48.316;11.558;2023-07-02T07:35:16;2.83;;;1.88;;
30287;SDS011;17103;48.316;11.558;2023-07-02T07:37:43;4.10;;;1.90;;
30287;SDS011;17103;48.316;11.558;2023-07-02T07:40:09;2.63;;;1.50;;
30287;SDS011;17103;48.316;11.558;2023-07-02T07:42:35;1.70;;;1.27;;
30287;SDS011;17103;48.316;11.558;2023-07-02T07:45:02;2.88;;;1.20;;
30287;SDS011;17103;48.316;11.558;2023-07-02T07:47:28;3.50;;;1.45;;
30287;SDS011;17103;48.316;11.558;2023-07-02T07:49:54;2.45;;;1.48;;
30287;SDS011;17103;48.316;11.558;2023-07-02T07:52:20;3.28;;;2.00;;
30287;SDS011;17103;48.316;11.558;2023-07-02T07:54:46;2.85;;;1.45;;
30287;SDS011;17103;48.316;11.558;2023-07-02T07:57:12;2.50;;;1.70;;
30287;SDS011;17103;48.316;11.558;2023-07-02T07:59:37;3.33;;;1.73;;
30287;SDS011;17103;48.316;11.558;2023-07-02T08:02:03;3.10;;;1.30;;
30287;SDS011;17103;48.316;11.558;2023-07-02T08:04:29;2.75;;;1.42;;
30287;SDS011;17103;48.316;11.558;2023-07-02T08:06:55;3.03;;;2.03;;
30287;SDS011;17103;48.316;11.558;2023-07-02T08:09:22;4.10;;;1.33;;
30287;SDS011;17103;48.316;11.558;2023-07-02T08:11:49;4.63;;;1.70;;
30287;SDS011;17103;48.316;11.558;2023-07-02T08:14:15;3.42;;;1.77;;
30287;SDS011;17103;48.316;11.558;2023-07-02T08:16:41;4.90;;;2.05;;
30287;SDS011;17103;48.316;11.558;2023-07-02T08:19:07;2.25;;;1.63;;
30287;SDS011;17103;48.316;11.558;2023-07-02T08:21:33;2.83;;;1.90;;
30287;SDS011;17103;48.316;11.558;2023-07-02T08:23:58;2.85;;;1.58;;
30287;SDS011;17103;48.316;11.558;2023-07-02T08:26:24;4.13;;;1.63;;
30287;SDS011;17103;48.316;11.558;2023-07-02T08:28:50;4.05;;;2.00;;
30287;SDS011;17103;48.316;11.558;2023-07-02T08:31:16;3.97;;;1.75;;
30287;SDS011;17103;48.316;11.558;2023-07-02T08:33:41;1.48;;;1.33;;
30287;SDS011;17103;48.316;11.558;2023-07-02T08:36:07;3.22;;;2.03;;
30287;SDS011;17103;48.316;11.558;2023-07-02T08:38:32;1.63;;;1.17;;
30287;SDS011;17103;48.316;11.558;2023-07-02T08:40:58;2.20;;;1.38;;
30287;SDS011;17103;48.316;11.558;2023-07-02T08:43:24;3.72;;;1.38;;
30287;SDS011;17103;48.316;11.558;2023-07-02T08:46:01;3.83;;;1.10;;
30287;SDS011;17103;48.316;11.558;2023-07-02T08:48:33;3.08;;;1.20;;
30287;SDS011;17103;48.316;11.558;2023-07-02T08:50:59;3.67;;;1.35;;
30287;SDS011;17103;48.316;11.558;2023-07-02T08:53:25;1.70;;;1.20;;
30287;SDS011;17103;48.316;11.558;2023-07-02T08:55:57;3.83;;;1.80;;
30287;SDS011;17103;48.316;11.558;2023-07-02T08:58:23;4.30;;;1.45;;
30287;SDS011;17103;48.316;11.558;2023-07-02T09:01:08;4.95;;;1.55;;
30287;SDS011;17103;48.316;11.558;2023-07-02T09:03:37;2.70;;;1.40;;
30287;SDS011;17103;48.316;11.558;2023-07-02T09:06:05;3.17;;;1.38;;
30287;SDS011;17103;48.316;11.558;2023-07-02T09:08:31;3.53;;;1.88;;
30287;SDS011;17103;48.316;11.558;2023-07-02T09:11:09;3.92;;;1.85;;
30287;SDS011;17103;48.316;11.558;2023-07-02T09:13:49;4.82;;;1.77;;
30287;SDS011;17103;48.316;11.558;2023-07-02T09:16:22;2.35;;;1.35;;
30287;SDS011;17103;48.316;11.558;2023-07-02T09:21:23;2.65;;;1.65;;
30287;SDS011;17103;48.316;11.558;2023-07-02T09:23:51;2.20;;;1.63;;
30287;SDS011;17103;48.316;11.558;2023-07-02T09:26:20;2.47;;;1.42;;
30287;SDS011;17103;48.316;11.558;2023-07-02T09:28:47;2.75;;;1.60;;
30287;SDS011;17103;48.316;11.558;2023-07-02T09:31:13;2.13;;;1.33;;
30287;SDS011;17103;48.316;11.558;2023-07-02T09:33:38;3.28;;;1.70;;
30287;SDS011;17103;48.316;11.558;2023-07-02T09:36:04;3.10;;;1.58;;
30287;SDS011;17103;48.316;11.558;2023-07-02T09:38:30;2.17;;;1.63;;
30287;SDS011;17103;48.316;11.558;2023-07-02T09:40:56;4.18;;;2.10;;
30287;SDS011;17103;48.316;11.558;2023-07-02T09:43:22;3.00;;;1.83;;
30287;SDS011;17103;48.316;11.558;2023-07-02T09:45:50;2.35;;;1.98;;
30287;SDS011;17103;48.316;11.558;2023-07-02T09:48:19;3.10;;;2.58;;
30287;SDS011;17103;48.316;11.558;2023-07-02T09:50:49;3.50;;;2.35;;
30287;SDS011;17103;48.316;11.558;2023-07-02T09:53:15;3.03;;;2.10;;
30287;SDS011;17103;48.316;11.558;2023-07-02T09:55:44;4.13;;;2.60;;
30287;SDS011;17103;48.316;11.558;2023-07-02T09:58:10;4.63;;;3.45;;
30287;SDS011;17103;48.316;11.558;2023-07-02T10:00:37;4.78;;;2.53;;
30287;SDS011;17103;48.316;11.558;2023-07-02T10:03:03;4.05;;;2.92;;
30287;SDS011;17103;48.316;11.558;2023-07-02T10:05:29;6.55;;;3.47;;
30287;SDS011;17103;48.316;11.558;2023-07-02T10:08:11;4.55;;;3.03;;
30287;SDS011;17103;48.316;11.558;2023-07-02T10:10:38;3.88;;;2.92;;
30287;SDS011;17103;48.316;11.558;2023-07-02T10:13:04;5.63;;;2.53;;
30287;SDS011;17103;48.316;11.558;2023-07-02T10:15:30;4.57;;;2.67;;
30287;SDS011;17103;48.316;11.558;2023-07-02T10:18:00;5.65;;;2.90;;
30287;SDS011;17103;48.316;11.558;2023-07-02T10:20:34;5.15;;;2.80;;
30287;SDS011;17103;48.316;11.558;2023-07-02T10:23:09;5.15;;;3.05;;
30287;SDS011;17103;48.316;11.558;2023-07-02T10:25:35;6.45;;;2.47;;
30287;SDS011;17103;48.316;11.558;2023-07-02T10:28:16;5.22;;;2.85;;
30287;SDS011;17103;48.316;11.558;2023-07-02T10:30:47;6.38;;;3.38;;
30287;SDS011;17103;48.316;11.558;2023-07-02T10:33:17;5.15;;;3.42;;
30287;SDS011;17103;48.316;11.558;2023-07-02T10:35:44;5.95;;;3.15;;
30287;SDS011;17103;48.316;11.558;2023-07-02T10:38:19;7.13;;;3.47;;
30287;SDS011;17103;48.316;11.558;2023-07-02T10:40:46;5.47;;;3.90;;
30287;SDS011;17103;48.316;11.558;2023-07-02T10:43:12;5.45;;;3.75;;
30287;SDS011;17103;48.316;11.558;2023-07-02T10:45:38;8.45;;;3.90;;
30287;SDS011;17103;48.316;11.558;2023-07-02T10:48:08;4.68;;;3.50;;
30287;SDS011;17103;48.316;11.558;2023-07-02T10:50:35;7.20;;;3.90;;
30287;SDS011;17103;48.316;11.558;2023-07-02T10:53:00;7.43;;;4.10;;
30287;SDS011;17103;48.316;11.558;2023-07-02T10:55:28;6.05;;;3.95;;
30287;SDS011;17103;48.316;11.558;2023-07-02T10:58:12;9.30;;;4.43;;
30287;SDS011;17103;48.316;11.558;2023-07-02T11:00:49;6.63;;;3.50;;
30287;SDS011;17103;48.316;11.558;2023-07-02T11:05:49;5.47;;;3.50;;
30287;SDS011;17103;48.316;11.558;2023-07-02T11:08:15;7.45;;;4.22;;
30287;SDS011;17103;48.316;11.558;2023-07-02T11:10:41;6.30;;;3.95;;
30287;SDS011;17103;48.316;11.558;2023-07-02T11:13:13;6.82;;;4.07;;
30287;SDS011;17103;48.316;11.558;2023-07-02T11:15:40;8.20;;;4.03;;
30287;SDS011;17103;48.316;11.558;2023-07-02T11:18:13;6.32;;;3.92;;
30287;SDS011;17103;48.316;11.558;2023-07-02T11:20:40;6.68;;;3.78;;
30287;SDS011;17103;48.316;11.558;2023-07-02T11:23:22;5.93;;;3.83;;
30287;SDS011;17103;48.316;11.558;2023-07-02T11:25:58;6.37;;;4.43;;
30287;SDS011;17103;48.316;11.558;2023-07-02T11:28:26;7.13;;;3.38;;
30287;SDS011;17103;48.316;11.558;2023-07-02T11:30:53;6.18;;;3.78;;
30287;SDS011;17103;48.316;11.558;2023-07-02T11:33:20;8.95;;;4.10;;
30287;SDS011;17103;48.316;11.558;2023-07-02T11:36:06;7.53;;;3.75;;
30287;SDS011;17103;48.316;11.558;2023-07-02T11:38:33;5.40;;;3.63;;
30287;SDS011;17103;48.316;11.558;2023-07-02T11:41:02;7.13;;;4.38;;
30287;SDS011;17103;48.316;11.558;2023-07-02T11:43:28;4.78;;;3.22;;
30287;SDS011;17103;48.316;11.558;2023-07-02T11:45:54;6.30;;;4.38;;
30287;SDS011;17103;48.316;11.558;2023-07-02T11:48:20;12.43;;;4.78;;
30287;SDS011;17103;48.316;11.558;2023-07-02T11:50:45;7.28;;;4.25;;
30287;SDS011;17103;48.316;11.558;2023-07-02T11:53:11;5.53;;;4.10;;
30287;SDS011;17103;48.316;11.558;2023-07-02T11:55:37;6.78;;;4.30;;
30287;SDS011;17103;48.316;11.558;2023-07-02T11:58:04;6.50;;;4.97;;
30287;SDS011;17103;48.316;11.558;2023-07-02T12:00:36;7.50;;;5.70;;
30287;SDS011;17103;48.316;11.558;2023-07-02T12:03:01;9.82;;;7.00;;
30287;SDS011;17103;48.316;11.558;2023-07-02T12:05:28;10.23;;;7.10;;
30287;SDS011;17103;48.316;11.558;2023-07-02T12:07:55;11.80;;;7.05;;
30287;SDS011;17103;48.316;11.558;2023-07-02T12:10:20;8.68;;;6.32;;
30287;SDS011;17103;48.316;11.558;2023-07-02T12:12:46;9.75;;;6.70;;
30287;SDS011;17103;48.316;11.558;2023-07-02T12:15:12;11.07;;;7.05;;
30287;SDS011;17103;48.316;11.558;2023-07-02T12:17:37;9.60;;;7.25;;
30287;SDS011;17103;48.316;11.558;2023-07-02T12:20:03;10.05;;;6.95;;
30287;SDS011;17103;48.316;11.558;2023-07-02T12:22:29;8.55;;;6.25;;
30287;SDS011;17103;48.316;11.558;2023-07-02T12:24:55;9.35;;;6.80;;
30287;SDS011;17103;48.316;11.558;2023-07-02T12:27:22;12.18;;;7.05;;
30287;SDS011;17103;48.316;11.558;2023-07-02T12:29:50;12.80;;;7.88;;
30287;SDS011;17103;48.316;11.558;2023-07-02T12:32:16;12.32;;;8.10;;
30287;SDS011;17103;48.316;11.558;2023-07-02T12:34:41;11.63;;;7.93;;
30287;SDS011;17103;48.316;11.558;2023-07-02T12:37:07;14.50;;;9.60;;
30287;SDS011;17103;48.316;11.558;2023-07-02T12:39:32;17.15;;;9.15;;
30287;SDS011;17103;48.316;11.558;2023-07-02T12:41:58;12.98;;;8.45;;
30287;SDS011;17103;48.316;11.558;2023-07-02T12:44:25;16.25;;;9.00;;
30287;SDS011;17103;48.316;11.558;2023-07-02T12:46:50;12.82;;;8.90;;
30287;SDS011;17103;48.316;11.558;2023-07-02T12:49:16;14.27;;;9.10;;
30287;SDS011;17103;48.316;11.558;2023-07-02T12:51:42;13.60;;;10.57;;
30287;SDS011;17103;48.316;11.558;2023-07-02T12:54:07;15.00;;;9.13;;
30287;SDS011;17103;48.316;11.558;2023-07-02T12:56:36;16.60;;;10.70;;
30287;SDS011;17103;48.316;11.558;2023-07-02T12:59:02;13.60;;;9.38;;
30287;SDS011;17103;48.316;11.558;2023-07-02T13:01:28;13.45;;;9.55;;
30287;SDS011;17103;48.316;11.558;2023-07-02T13:03:53;14.43;;;9.60;;
30287;SDS011;17103;48.316;11.558;2023-07-02T13:06:19;12.50;;;9.63;;
30287;SDS011;17103;48.316;11.558;2023-07-02T13:08:45;13.90;;;9.20;;
30287;SDS011;17103;48.316;11.558;2023-07-02T13:11:10;13.75;;;9.80;;
30287;SDS011;17103;48.316;11.558;2023-07-02T13:13:36;13.05;;;9.07;;
30287;SDS011;17103;48.316;11.558;2023-07-02T13:16:02;14.70;;;10.50;;
30287;SDS011;17103;48.316;11.558;2023-07-02T13:18:28;15.02;;;10.10;;
30287;SDS011;17103;48.316;11.558;2023-07-02T13:20:53;14.52;;;10.63;;
30287;SDS011;17103;48.316;11.558;2023-07-02T13:23:19;14.35;;;9.50;;
30287;SDS011;17103;48.316;11.558;2023-07-02T13:25:45;15.95;;;10.07;;
30287;SDS011;17103;48.316;11.558;2023-07-02T13:28:11;15.05;;;10.82;;
30287;SDS011;17103;48.316;11.558;2023-07-02T13:30:37;13.57;;;9.48;;
30287;SDS011;17103;48.316;11.558;2023-07-02T13:33:02;15.45;;;10.35;;
30287;SDS011;17103;48.316;11.558;2023-07-02T13:35:28;18.98;;;10.38;;
30287;SDS011;17103;48.316;11.558;2023-07-02T13:37:54;15.43;;;10.52;;
30287;SDS011;17103;48.316;11.558;2023-07-02T13:40:20;16.90;;;11.40;;
30287;SDS011;17103;48.316;11.558;2023-07-02T13:42:45;13.57;;;10.15;;
30287;SDS011;17103;48.316;11.558;2023-07-02T13:45:11;14.35;;;10.50;;
30287;SDS011;17103;48.316;11.558;2023-07-02T13:47:37;19.98;;;10.75;;
30287;SDS011;17103;48.316;11.558;2023-07-02T13:50:03;15.15;;;10.25;;
30287;SDS011;17103;48.316;11.558;2023-07-02T13:52:30;14.70;;;10.20;;
30287;SDS011;17103;48.316;11.558;2023-07-02T13:54:56;13.82;;;9.32;;
30287;SDS011;17103;48.316;11.558;2023-07-02T13:57:22;16.63;;;9.80;;
30287;SDS011;17103;48.316;11.558;2023-07-02T13:59:50;16.17;;;10.48;;
30287;SDS011;17103;48.316;11.558;2023-07-02T14:02:23;16.08;;;10.48;;
30287;SDS011;17103;48.316;11.558;2023-07-02T14:04:51;16.35;;;10.48;;
30287;SDS011;17103;48.316;11.558;2023-07-02T14:07:16;16.67;;;10.93;;
30287;SDS011;17103;48.316;11.558;2023-07-02T14:09:42;15.25;;;10.65;;
30287;SDS011;17103;48.316;11.558;2023-07-02T14:12:08;14.68;;;10.20;;
30287;SDS011;17103;48.316;11.558;2023-07-02T14:14:34;16.25;;;10.57;;
30287;SDS011;17103;48.316;11.558;2023-07-02T14:16:59;15.60;;;10.93;;
30287;SDS011;17103;48.316;11.558;2023-07-02T14:19:25;13.88;;;10.15;;
30287;SDS011;17103;48.316;11.558;2023-07-02T14:21:52;16.05;;;11.60;;
30287;SDS011;17103;48.316;11.558;2023-07-02T14:24:20;18.48;;;12.20;;
30287;SDS011;17103;48.316;11.558;2023-07-02T14:26:46;17.65;;;10.88;;
30287;SDS011;17103;48.316;11.558;2023-07-02T14:29:12;18.40;;;12.73;;
30287;SDS011;17103;48.316;11.558;2023-07-02T14:31:48;18.52;;;11.18;;
30287;SDS011;17103;48.316;11.558;2023-07-02T14:34:13;16.42;;;11.73;;
30287;SDS011;17103;48.316;11.558;2023-07-02T14:36:39;20.70;;;12.93;;
30287;SDS011;17103;48.316;11.558;2023-07-02T14:39:05;15.90;;;11.32;;
30287;SDS011;17103;48.316;11.558;2023-07-02T14:41:30;17.05;;;12.35;;
30287;SDS011;17103;48.316;11.558;2023-07-02T14:44:00;16.63;;;12.13;;
30287;SDS011;17103;48.316;11.558;2023-07-02T14:46:30;20.48;;;13.95;;
30287;SDS011;17103;48.316;11.558;2023-07-02T14:48:56;18.08;;;12.43;;
30287;SDS011;17103;48.316;11.558;2023-07-02T14:51:22;17.45;;;13.35;;
30287;SDS011;17103;48.316;11.558;2023-07-02T14:53:49;17.30;;;12.20;;
30287;SDS011;17103;48.316;11.558;2023-07-02T14:56:20;17.45;;;13.70;;
30287;SDS011;17103;48.316;11.558;2023-07-02T14:58:46;23.17;;;13.90;;
30287;SDS011;17103;48.316;11.558;2023-07-02T15:01:11;17.90;;;13.55;;
30287;SDS011;17103;48.316;11.558;2023-07-02T15:03:37;21.45;;;13.52;;
30287;SDS011;17103;48.316;11.558;2023-07-02T15:06:07;16.38;;;11.95;;